Time;durP1;ratioP1;P1;durP2;ratioP2;P2;SDS_P1;SDS_P2;PMS_P1;PMS_P2;Temp;Humidity;BMP_temperature;BMP_pressure;BME280_temperature;BME280_humidity;BME280_pressure;Samples;Min_cycle;Max_cycle;Signal;HPM_P1;HPM_P2
2021/12/28 00:01:59;;;;;;;33.25;6.32;;;;;;;;;;4967090;28;20026;-65
2021/12/28 00:04:25;;;;;;;30.98;6.75;;;;;;;;;;4992578;28;20074;-65
2021/12/28 00:06:52;;;;;;;35.75;6.07;;;;;;;;;;4975489;28;20125;-65
2021/12/28 00:09:18;;;;;;;36.30;6.18;;;;;;;;;;4992885;28;20030;-65
2021/12/28 00:11:44;;;;;;;50.80;7.05;;;;;;;;;;5001965;28;20038;-65
2021/12/28 00:14:10;;;;;;;38.47;6.07;;;;;;;;;;5000452;28;20042;-65
2021/12/28 00:19:21;;;;;;;40.13;7.20;;;;;;;;;;4991075;28;20041;-65
2021/12/28 00:21:47;;;;;;;46.63;8.70;;;;;;;;;;5004212;28;20026;-65
2021/12/28 00:24:14;;;;;;;34.88;6.10;;;;;;;;;;4983049;28;20041;-65
2021/12/28 00:26:40;;;;;;;32.55;5.55;;;;;;;;;;4982764;28;20035;-65
2021/12/28 00:29:06;;;;;;;36.60;6.10;;;;;;;;;;4982948;28;20092;-65
2021/12/28 00:31:34;;;;;;;46.83;7.05;;;;;;;;;;4983145;28;20105;-65
2021/12/28 00:34:00;;;;;;;40.30;5.95;;;;;;;;;;4986009;28;20178;-65
2021/12/28 00:36:26;;;;;;;48.33;6.10;;;;;;;;;;4997640;28;20081;-65
2021/12/28 00:38:52;;;;;;;37.00;5.97;;;;;;;;;;5001912;28;20173;-65
2021/12/28 00:41:20;;;;;;;29.98;5.95;;;;;;;;;;5002235;28;20034;-65
2021/12/28 00:43:46;;;;;;;60.22;7.22;;;;;;;;;;5008349;28;20397;-65
2021/12/28 00:46:12;;;;;;;33.72;6.75;;;;;;;;;;5001213;28;20057;-65
2021/12/28 00:48:39;;;;;;;44.75;7.55;;;;;;;;;;5007979;28;20030;-65
2021/12/28 00:51:06;;;;;;;53.85;8.85;;;;;;;;;;5001030;28;20042;-65
2021/12/28 00:53:32;;;;;;;50.10;6.82;;;;;;;;;;5001226;28;20110;-66
2021/12/28 00:55:58;;;;;;;45.33;7.70;;;;;;;;;;4997993;28;20057;-65
2021/12/28 00:58:25;;;;;;;46.88;7.47;;;;;;;;;;5004884;28;20030;-66
2021/12/28 01:00:51;;;;;;;32.92;5.53;;;;;;;;;;4999115;28;20030;-66
2021/12/28 01:03:18;;;;;;;44.67;6.22;;;;;;;;;;5008164;28;20398;-65
2021/12/28 01:05:45;;;;;;;36.40;5.57;;;;;;;;;;4996825;28;20513;-65
2021/12/28 01:08:12;;;;;;;35.85;6.15;;;;;;;;;;5016125;28;20054;-65
2021/12/28 01:10:40;;;;;;;47.63;7.07;;;;;;;;;;5016024;28;20411;-66
2021/12/28 01:13:07;;;;;;;40.13;6.38;;;;;;;;;;5008732;28;20034;-65
2021/12/28 01:15:33;;;;;;;37.25;6.60;;;;;;;;;;4995750;28;20068;-65
2021/12/28 01:17:59;;;;;;;41.88;5.90;;;;;;;;;;4978218;28;20034;-65
2021/12/28 01:20:26;;;;;;;50.00;7.70;;;;;;;;;;4995740;28;20088;-65
2021/12/28 01:22:52;;;;;;;33.33;6.15;;;;;;;;;;4995411;28;20033;-65
2021/12/28 01:25:19;;;;;;;42.53;6.47;;;;;;;;;;4978015;28;20511;-65
2021/12/28 01:27:45;;;;;;;52.78;6.65;;;;;;;;;;4994924;28;20517;-65
2021/12/28 01:30:12;;;;;;;46.17;7.00;;;;;;;;;;4995414;28;20027;-65
2021/12/28 01:32:38;;;;;;;39.55;5.72;;;;;;;;;;4995790;28;20387;-65
2021/12/28 01:35:06;;;;;;;44.53;8.25;;;;;;;;;;4994985;28;20030;-65
2021/12/28 01:37:32;;;;;;;41.15;6.88;;;;;;;;;;4995141;28;20507;-65
2021/12/28 01:39:59;;;;;;;36.78;6.38;;;;;;;;;;4994763;28;20169;-65
2021/12/28 01:42:25;;;;;;;36.15;6.07;;;;;;;;;;4961370;28;20461;-65
2021/12/28 01:44:51;;;;;;;37.45;5.80;;;;;;;;;;4994891;28;20471;-66
2021/12/28 01:47:17;;;;;;;35.30;6.40;;;;;;;;;;4995348;28;20018;-65
2021/12/28 01:49:44;;;;;;;37.47;5.82;;;;;;;;;;4994933;28;20030;-65
2021/12/28 01:52:11;;;;;;;43.83;6.88;;;;;;;;;;4994732;28;20030;-66
2021/12/28 01:54:37;;;;;;;34.22;5.43;;;;;;;;;;4994932;28;20030;-65
2021/12/28 01:57:03;;;;;;;41.55;6.20;;;;;;;;;;4993531;28;20030;-65
2021/12/28 01:59:29;;;;;;;39.63;6.80;;;;;;;;;;4994975;28;20368;-66
2021/12/28 02:01:56;;;;;;;42.10;5.65;;;;;;;;;;4994594;28;20022;-65
2021/12/28 02:04:27;;;;;;;44.22;6.55;;;;;;;;;;4994803;28;20026;-65
2021/12/28 02:06:58;;;;;;;38.45;5.75;;;;;;;;;;4994294;28;20027;-65
2021/12/28 02:09:24;;;;;;;36.88;6.53;;;;;;;;;;4994590;28;20030;-65
2021/12/28 02:11:52;;;;;;;48.35;6.20;;;;;;;;;;4994539;28;20121;-65
2021/12/28 02:14:18;;;;;;;28.25;5.45;;;;;;;;;;4977028;28;20074;-65
2021/12/28 02:16:44;;;;;;;35.30;5.60;;;;;;;;;;4995036;28;20030;-66
2021/12/28 02:19:11;;;;;;;31.02;4.50;;;;;;;;;;4994335;28;20030;-65
2021/12/28 02:21:38;;;;;;;30.77;4.95;;;;;;;;;;4994557;28;20033;-65
2021/12/28 02:24:05;;;;;;;40.22;5.53;;;;;;;;;;4994090;28;20041;-65
2021/12/28 02:26:31;;;;;;;28.77;4.88;;;;;;;;;;4994445;28;20105;-65
2021/12/28 02:28:58;;;;;;;55.13;5.43;;;;;;;;;;4994081;28;20026;-65
2021/12/28 02:31:24;;;;;;;31.65;4.07;;;;;;;;;;4994219;28;20410;-66
2021/12/28 02:33:50;;;;;;;33.28;5.05;;;;;;;;;;4990945;28;20415;-66
2021/12/28 02:36:17;;;;;;;37.97;5.07;;;;;;;;;;4991643;28;20024;-66
2021/12/28 02:38:44;;;;;;;27.38;4.07;;;;;;;;;;4991875;28;20030;-65
2021/12/28 02:41:10;;;;;;;21.90;4.07;;;;;;;;;;4991677;28;20038;-65
2021/12/28 02:43:37;;;;;;;28.88;3.67;;;;;;;;;;4992522;28;20026;-65
2021/12/28 02:46:05;;;;;;;28.20;4.10;;;;;;;;;;4993316;28;20026;-65
2021/12/28 02:48:32;;;;;;;23.70;3.92;;;;;;;;;;4992717;28;20026;-65
2021/12/28 02:51:03;;;;;;;24.02;4.43;;;;;;;;;;4976376;28;20037;-65
2021/12/28 02:53:30;;;;;;;32.70;4.53;;;;;;;;;;4993668;28;20117;-65
2021/12/28 02:55:58;;;;;;;31.45;4.05;;;;;;;;;;4993599;28;20109;-66
2021/12/28 02:58:53;;;;;;;22.88;3.60;;;;;;;;;;4993882;28;20030;-66
2021/12/28 03:01:20;;;;;;;17.33;2.88;;;;;;;;;;4977463;28;20056;-65
2021/12/28 03:03:50;;;;;;;18.75;4.43;;;;;;;;;;4993730;28;20023;-65
2021/12/28 03:06:17;;;;;;;22.00;3.67;;;;;;;;;;4993859;28;20026;-66
2021/12/28 03:08:45;;;;;;;15.15;3.08;;;;;;;;;;4993013;28;20053;-65
2021/12/28 03:11:12;;;;;;;20.90;2.80;;;;;;;;;;4993336;28;20037;-66
2021/12/28 03:13:40;;;;;;;14.25;2.38;;;;;;;;;;4993389;28;20030;-66
2021/12/28 03:16:06;;;;;;;12.93;2.25;;;;;;;;;;4975846;28;20073;-65
2021/12/28 03:18:33;;;;;;;11.05;1.60;;;;;;;;;;4993318;28;20030;-65
2021/12/28 03:20:59;;;;;;;15.32;2.22;;;;;;;;;;4993311;28;20065;-66
2021/12/28 03:23:26;;;;;;;11.57;1.63;;;;;;;;;;4993046;28;20022;-66
2021/12/28 03:25:52;;;;;;;9.57;1.58;;;;;;;;;;4993218;28;20034;-65
2021/12/28 03:28:20;;;;;;;11.95;1.63;;;;;;;;;;4993140;28;20025;-65
2021/12/28 03:30:47;;;;;;;10.85;1.70;;;;;;;;;;4993283;28;20117;-66
2021/12/28 03:33:13;;;;;;;8.48;1.42;;;;;;;;;;4993112;28;20526;-66
2021/12/28 03:35:39;;;;;;;12.35;2.25;;;;;;;;;;4992771;28;20022;-66
2021/12/28 03:38:06;;;;;;;25.17;3.30;;;;;;;;;;4992332;28;20078;-65
2021/12/28 03:40:33;;;;;;;20.10;3.80;;;;;;;;;;4992848;28;20035;-65
2021/12/28 03:42:59;;;;;;;39.03;5.15;;;;;;;;;;4992981;28;20080;-66
2021/12/28 03:45:25;;;;;;;29.42;4.45;;;;;;;;;;4993221;28;20073;-65
2021/12/28 03:47:51;;;;;;;37.35;4.88;;;;;;;;;;4993108;28;20029;-65
2021/12/28 03:50:19;;;;;;;41.13;6.60;;;;;;;;;;4992800;28;20085;-65
2021/12/28 03:52:45;;;;;;;35.33;5.30;;;;;;;;;;4992533;28;20033;-65
2021/12/28 03:55:12;;;;;;;29.65;5.32;;;;;;;;;;4992645;28;20457;-65
2021/12/28 03:57:39;;;;;;;31.48;4.90;;;;;;;;;;4993051;28;20433;-65
2021/12/28 04:00:09;;;;;;;29.30;4.32;;;;;;;;;;4992626;28;20034;-66
2021/12/28 04:02:35;;;;;;;36.78;5.70;;;;;;;;;;4992726;28;20049;-66
2021/12/28 04:05:01;;;;;;;30.08;5.63;;;;;;;;;;4992578;28;20027;-65
2021/12/28 04:07:29;;;;;;;53.00;5.65;;;;;;;;;;4992142;28;20062;-65
2021/12/28 04:12:22;;;;;;;53.35;8.93;;;;;;;;;;4992214;28;20089;-65
2021/12/28 04:14:48;;;;;;;51.40;7.50;;;;;;;;;;4992918;28;20026;-65
2021/12/28 04:17:14;;;;;;;51.33;8.23;;;;;;;;;;4992556;28;20470;-65
2021/12/28 04:19:40;;;;;;;44.85;6.65;;;;;;;;;;4993767;28;20026;-65
2021/12/28 04:22:07;;;;;;;53.03;8.02;;;;;;;;;;4996594;28;20398;-65
2021/12/28 04:24:34;;;;;;;40.72;7.47;;;;;;;;;;4996647;28;20521;-65
2021/12/28 04:27:00;;;;;;;46.15;8.43;;;;;;;;;;4978989;28;20030;-66
2021/12/28 04:29:26;;;;;;;51.00;8.35;;;;;;;;;;4996664;28;20065;-65
2021/12/28 04:31:52;;;;;;;53.22;8.35;;;;;;;;;;4996496;28;20467;-66
2021/12/28 04:34:19;;;;;;;69.55;10.13;;;;;;;;;;4995789;28;20041;-66
2021/12/28 04:36:47;;;;;;;56.22;7.80;;;;;;;;;;4962988;28;20165;-65
2021/12/28 04:39:13;;;;;;;57.60;8.85;;;;;;;;;;4996063;28;20027;-65
2021/12/28 04:41:40;;;;;;;60.33;9.38;;;;;;;;;;4996417;28;20034;-66
2021/12/28 04:44:07;;;;;;;55.92;10.00;;;;;;;;;;4995948;28;20029;-65
2021/12/28 04:46:33;;;;;;;65.03;10.35;;;;;;;;;;4996167;28;20023;-65
2021/12/28 04:48:59;;;;;;;53.17;9.85;;;;;;;;;;4995917;28;20022;-66
2021/12/28 04:51:25;;;;;;;54.78;9.65;;;;;;;;;;4995882;28;20459;-65
2021/12/28 04:53:56;;;;;;;64.22;8.73;;;;;;;;;;4996207;28;20406;-65
2021/12/28 04:56:22;;;;;;;58.42;8.70;;;;;;;;;;4996001;28;20030;-66
2021/12/28 04:58:48;;;;;;;50.72;8.80;;;;;;;;;;4996045;28;20045;-65
2021/12/28 05:01:14;;;;;;;53.00;8.00;;;;;;;;;;4995818;28;20402;-65
2021/12/28 05:03:40;;;;;;;64.55;10.18;;;;;;;;;;4995640;28;20026;-65
2021/12/28 05:06:06;;;;;;;69.43;10.73;;;;;;;;;;4995509;28;20031;-65
2021/12/28 05:08:32;;;;;;;62.22;7.85;;;;;;;;;;4995978;28;20471;-66
2021/12/28 05:10:59;;;;;;;61.83;11.25;;;;;;;;;;4995864;28;20034;-65
2021/12/28 05:13:25;;;;;;;73.75;10.70;;;;;;;;;;4995758;28;20499;-65
2021/12/28 05:15:53;;;;;;;59.40;9.80;;;;;;;;;;4995686;28;20030;-66
2021/12/28 05:18:20;;;;;;;42.33;8.98;;;;;;;;;;4994929;28;20019;-65
2021/12/28 05:20:46;;;;;;;66.07;9.18;;;;;;;;;;4995647;28;20117;-65
2021/12/28 05:23:12;;;;;;;58.15;10.45;;;;;;;;;;4995470;28;20097;-65
2021/12/28 05:25:39;;;;;;;67.43;11.60;;;;;;;;;;4995599;28;20105;-65
2021/12/28 05:28:05;;;;;;;70.85;11.82;;;;;;;;;;4995324;28;20037;-65
2021/12/28 05:30:32;;;;;;;74.65;10.30;;;;;;;;;;4995352;28;20038;-65
2021/12/28 05:32:58;;;;;;;74.30;10.27;;;;;;;;;;4994914;28;20036;-65
2021/12/28 05:35:24;;;;;;;67.00;12.48;;;;;;;;;;4995228;28;20038;-65
2021/12/28 05:37:51;;;;;;;67.55;11.65;;;;;;;;;;4994987;28;20072;-65
2021/12/28 05:40:17;;;;;;;80.40;10.38;;;;;;;;;;4995119;28;20499;-66
2021/12/28 05:42:43;;;;;;;63.67;9.85;;;;;;;;;;4978029;28;20053;-65
2021/12/28 05:45:10;;;;;;;54.33;9.07;;;;;;;;;;4995018;28;20027;-65
2021/12/28 05:47:37;;;;;;;91.30;14.10;;;;;;;;;;4994670;28;20092;-65
2021/12/28 05:50:04;;;;;;;65.00;10.85;;;;;;;;;;4995032;28;20042;-65
2021/12/28 05:52:31;;;;;;;73.43;11.02;;;;;;;;;;4994849;28;20073;-65
2021/12/28 05:54:57;;;;;;;55.47;9.10;;;;;;;;;;4995047;28;20109;-65
2021/12/28 05:57:24;;;;;;;58.42;10.85;;;;;;;;;;4994722;28;20030;-65
2021/12/28 05:59:50;;;;;;;65.43;10.15;;;;;;;;;;4995044;28;20517;-65
2021/12/28 06:02:16;;;;;;;53.72;11.55;;;;;;;;;;4994033;28;20069;-66
2021/12/28 06:04:43;;;;;;;73.00;10.00;;;;;;;;;;4977452;28;20509;-65
2021/12/28 06:07:09;;;;;;;73.25;11.98;;;;;;;;;;4994699;28;20030;-65
2021/12/28 06:09:35;;;;;;;63.28;9.80;;;;;;;;;;4994771;28;20038;-65
2021/12/28 06:12:01;;;;;;;68.93;11.38;;;;;;;;;;4994424;28;20070;-65
2021/12/28 06:14:27;;;;;;;81.53;10.90;;;;;;;;;;4994557;28;20145;-65
2021/12/28 06:16:54;;;;;;;63.53;10.93;;;;;;;;;;4994256;28;20093;-66
2021/12/28 06:19:20;;;;;;;70.90;9.55;;;;;;;;;;4994282;28;20038;-65
2021/12/28 06:21:46;;;;;;;70.70;12.32;;;;;;;;;;4994498;28;20038;-65
2021/12/28 06:24:12;;;;;;;78.68;11.02;;;;;;;;;;4993919;28;20026;-65
2021/12/28 06:26:38;;;;;;;76.25;11.18;;;;;;;;;;4994951;28;20113;-66
2021/12/28 06:29:05;;;;;;;71.18;10.23;;;;;;;;;;4994383;28;20054;-65
2021/12/28 06:31:32;;;;;;;59.92;10.20;;;;;;;;;;4993837;28;20030;-65
2021/12/28 06:33:59;;;;;;;69.03;9.77;;;;;;;;;;4994430;28;20054;-66
2021/12/28 06:36:26;;;;;;;49.33;8.45;;;;;;;;;;4993890;28;20057;-65
2021/12/28 06:38:52;;;;;;;63.67;9.25;;;;;;;;;;4994088;28;20133;-65
2021/12/28 06:41:18;;;;;;;65.00;11.50;;;;;;;;;;4993850;28;20125;-65
2021/12/28 06:43:47;;;;;;;80.32;10.57;;;;;;;;;;4993655;28;20034;-65
2021/12/28 06:46:13;;;;;;;72.55;9.75;;;;;;;;;;4993440;28;20394;-65
2021/12/28 06:48:39;;;;;;;56.00;9.30;;;;;;;;;;4994012;28;20380;-65
2021/12/28 06:51:06;;;;;;;48.47;9.82;;;;;;;;;;4976467;28;20080;-65
2021/12/28 06:53:32;;;;;;;51.20;8.05;;;;;;;;;;4976377;28;20037;-65
2021/12/28 06:55:59;;;;;;;61.58;8.15;;;;;;;;;;4994119;28;20022;-65
2021/12/28 06:58:25;;;;;;;62.75;11.88;;;;;;;;;;4993083;28;20057;-65
2021/12/28 07:00:51;;;;;;;58.42;9.55;;;;;;;;;;4993372;28;20026;-65
2021/12/28 07:03:17;;;;;;;53.83;8.70;;;;;;;;;;4993514;28;20030;-65
2021/12/28 07:05:43;;;;;;;58.60;8.65;;;;;;;;;;4993609;28;20025;-65
2021/12/28 07:08:09;;;;;;;48.80;8.80;;;;;;;;;;4993845;28;20513;-65
2021/12/28 07:10:35;;;;;;;54.40;9.57;;;;;;;;;;4993728;28;20026;-65
2021/12/28 07:13:01;;;;;;;47.78;7.45;;;;;;;;;;4993221;28;20553;-65
2021/12/28 07:15:27;;;;;;;54.45;8.75;;;;;;;;;;4993051;28;20058;-65
2021/12/28 07:17:54;;;;;;;55.88;8.02;;;;;;;;;;4993565;28;20042;-65
2021/12/28 07:20:20;;;;;;;47.55;7.47;;;;;;;;;;4993153;28;20040;-65
2021/12/28 07:22:46;;;;;;;41.60;7.25;;;;;;;;;;4992843;28;20023;-65
2021/12/28 07:25:12;;;;;;;54.45;8.93;;;;;;;;;;4989450;28;20019;-65
2021/12/28 07:27:38;;;;;;;49.95;9.23;;;;;;;;;;4991655;28;20033;-66
2021/12/28 07:30:06;;;;;;;59.13;9.98;;;;;;;;;;4993226;28;20125;-65
2021/12/28 07:32:32;;;;;;;50.80;9.43;;;;;;;;;;4990374;28;20117;-65
2021/12/28 07:34:58;;;;;;;71.57;10.60;;;;;;;;;;4992582;28;20030;-65
2021/12/28 07:37:25;;;;;;;62.80;10.68;;;;;;;;;;4993024;28;20038;-66
2021/12/28 07:39:53;;;;;;;55.67;11.02;;;;;;;;;;4992489;28;20433;-65
2021/12/28 07:42:19;;;;;;;44.90;9.07;;;;;;;;;;4988571;28;20026;-65
2021/12/28 07:44:45;;;;;;;63.88;10.30;;;;;;;;;;4991918;28;20030;-65
2021/12/28 07:47:11;;;;;;;59.00;8.75;;;;;;;;;;4992785;28;20018;-66
2021/12/28 07:49:37;;;;;;;61.97;10.57;;;;;;;;;;4980722;28;20487;-65
2021/12/28 07:52:04;;;;;;;66.35;9.43;;;;;;;;;;4991534;28;20030;-65
2021/12/28 07:54:30;;;;;;;52.25;8.40;;;;;;;;;;4990434;28;20041;-65
2021/12/28 07:56:56;;;;;;;53.35;8.93;;;;;;;;;;4991910;28;21086;-65
2021/12/28 07:59:22;;;;;;;63.78;9.70;;;;;;;;;;4980292;28;20026;-65
2021/12/28 08:01:48;;;;;;;68.03;10.15;;;;;;;;;;4990219;28;20504;-65
2021/12/28 08:04:14;;;;;;;57.78;10.50;;;;;;;;;;4992192;28;20478;-65
2021/12/28 08:06:40;;;;;;;54.22;9.45;;;;;;;;;;4992419;28;20034;-65
2021/12/28 08:09:07;;;;;;;64.65;9.13;;;;;;;;;;4990913;28;20057;-65
2021/12/28 08:11:34;;;;;;;55.72;7.78;;;;;;;;;;4990042;28;20037;-65
2021/12/28 08:14:00;;;;;;;50.42;7.32;;;;;;;;;;4991339;28;20548;-65
2021/12/28 08:16:26;;;;;;;57.03;9.02;;;;;;;;;;4990407;28;20418;-64
2021/12/28 08:18:52;;;;;;;61.03;10.68;;;;;;;;;;4991046;28;20550;-64
2021/12/28 08:21:19;;;;;;;49.35;8.15;;;;;;;;;;4989565;28;20035;-65
2021/12/28 08:23:45;;;;;;;59.38;8.35;;;;;;;;;;4989939;28;20033;-65
2021/12/28 08:26:11;;;;;;;51.85;8.43;;;;;;;;;;4991480;28;20093;-65
2021/12/28 08:28:37;;;;;;;46.47;8.45;;;;;;;;;;4976303;28;20430;-64
2021/12/28 08:31:04;;;;;;;50.53;8.25;;;;;;;;;;4990614;28;20033;-65
2021/12/28 08:33:30;;;;;;;57.97;8.38;;;;;;;;;;4988851;28;20041;-64
2021/12/28 08:35:56;;;;;;;52.63;8.85;;;;;;;;;;4981133;28;20455;-64
2021/12/28 08:38:22;;;;;;;71.78;8.55;;;;;;;;;;4993428;28;20046;-64
2021/12/28 08:40:49;;;;;;;62.08;8.68;;;;;;;;;;4984871;28;20536;-65
2021/12/28 08:43:15;;;;;;;56.38;8.40;;;;;;;;;;4986875;28;20049;-64
2021/12/28 08:45:41;;;;;;;58.88;9.35;;;;;;;;;;4991372;28;20026;-65
2021/12/28 08:48:08;;;;;;;63.45;10.85;;;;;;;;;;4967785;28;20022;-65
2021/12/28 08:50:35;;;;;;;49.78;8.05;;;;;;;;;;4976981;28;20036;-65
2021/12/28 08:53:01;;;;;;;51.90;9.07;;;;;;;;;;4992596;28;20034;-65
2021/12/28 08:55:27;;;;;;;46.20;8.90;;;;;;;;;;4997083;28;20033;-64
2021/12/28 08:57:54;;;;;;;70.75;9.63;;;;;;;;;;5001796;28;20455;-65
2021/12/28 09:00:24;;;;;;;61.55;9.15;;;;;;;;;;4996196;28;20081;-65
2021/12/28 09:02:52;;;;;;;67.05;8.63;;;;;;;;;;4992392;28;20057;-65
2021/12/28 09:05:18;;;;;;;54.05;9.15;;;;;;;;;;4994475;28;20018;-65
2021/12/28 09:07:44;;;;;;;60.35;9.65;;;;;;;;;;5004128;28;20022;-64
2021/12/28 09:10:11;;;;;;;75.10;9.88;;;;;;;;;;4993019;28;20065;-65
2021/12/28 09:12:37;;;;;;;62.33;9.60;;;;;;;;;;4992084;28;21080;-65
2021/12/28 09:15:04;;;;;;;55.22;8.95;;;;;;;;;;4991139;28;20057;-65
2021/12/28 09:17:33;;;;;;;54.05;8.73;;;;;;;;;;4990998;28;20465;-65
2021/12/28 09:19:59;;;;;;;64.65;9.75;;;;;;;;;;4992519;28;20508;-65
2021/12/28 09:22:25;;;;;;;62.78;9.00;;;;;;;;;;4969448;28;20499;-65
2021/12/28 09:24:51;;;;;;;58.53;8.82;;;;;;;;;;4980965;28;20023;-65
2021/12/28 09:27:17;;;;;;;53.92;9.68;;;;;;;;;;4984110;28;20510;-64
2021/12/28 09:29:44;;;;;;;60.90;9.95;;;;;;;;;;4985408;28;20023;-65
2021/12/28 09:32:10;;;;;;;60.00;11.50;;;;;;;;;;4994149;28;20056;-63
2021/12/28 09:34:36;;;;;;;64.35;10.90;;;;;;;;;;4992916;28;20038;-64
2021/12/28 09:37:02;;;;;;;60.72;10.55;;;;;;;;;;5010138;28;20054;-63
2021/12/28 09:39:30;;;;;;;53.95;11.18;;;;;;;;;;4992164;28;20081;-69
2021/12/28 09:41:58;;;;;;;53.97;8.30;;;;;;;;;;5000037;28;20045;-63
2021/12/28 09:44:25;;;;;;;54.55;10.20;;;;;;;;;;4993198;28;20026;-64
2021/12/28 09:46:51;;;;;;;58.92;9.93;;;;;;;;;;4996545;28;20046;-63
2021/12/28 09:49:17;;;;;;;57.85;9.57;;;;;;;;;;4996587;28;20018;-64
2021/12/28 09:51:43;;;;;;;74.03;9.13;;;;;;;;;;4994453;28;20081;-63
2021/12/28 09:54:09;;;;;;;62.58;9.35;;;;;;;;;;4993910;28;20034;-64
2021/12/28 09:56:36;;;;;;;59.60;9.00;;;;;;;;;;4995306;28;20034;-64
2021/12/28 09:59:03;;;;;;;54.85;9.50;;;;;;;;;;4995025;28;20030;-64
2021/12/28 10:01:29;;;;;;;47.90;9.65;;;;;;;;;;4992404;28;20058;-64
2021/12/28 10:03:57;;;;;;;61.60;8.50;;;;;;;;;;4975817;28;20031;-65
2021/12/28 10:06:25;;;;;;;53.20;9.95;;;;;;;;;;4980988;28;20027;-64
2021/12/28 10:09:10;;;;;;;56.75;13.25;;;;;;;;;;4975831;28;20486;-65
2021/12/28 10:11:38;;;;;;;54.38;12.40;;;;;;;;;;4993030;28;20058;-64
2021/12/28 10:14:33;;;;;;;53.78;10.05;;;;;;;;;;4972429;28;20439;-64
2021/12/28 10:17:01;;;;;;;58.10;10.18;;;;;;;;;;4962129;28;20066;-64
2021/12/28 10:19:41;;;;;;;63.00;11.02;;;;;;;;;;4982454;28;20026;-65
2021/12/28 10:22:26;;;;;;;64.18;10.55;;;;;;;;;;4993860;28;20033;-71
2021/12/28 10:25:01;;;;;;;56.88;9.07;;;;;;;;;;4995219;28;20050;-69
2021/12/28 10:27:29;;;;;;;55.90;9.07;;;;;;;;;;4991206;28;20030;-65
2021/12/28 10:30:00;;;;;;;63.92;10.82;;;;;;;;;;5001080;28;20278;-69
2021/12/28 10:32:29;;;;;;;51.05;10.82;;;;;;;;;;4996781;28;20033;-66
2021/12/28 10:34:56;;;;;;;66.18;10.52;;;;;;;;;;5003326;28;20034;-65
2021/12/28 10:37:29;;;;;;;59.53;8.60;;;;;;;;;;5008501;28;20038;-69
2021/12/28 10:39:58;;;;;;;67.45;9.70;;;;;;;;;;5000594;28;20066;-72
2021/12/28 10:42:36;;;;;;;63.28;9.15;;;;;;;;;;4999484;28;20022;-71
2021/12/28 10:45:03;;;;;;;63.88;8.35;;;;;;;;;;5008593;28;20026;-70
2021/12/28 10:47:30;;;;;;;55.75;9.27;;;;;;;;;;5009820;28;20021;-69
2021/12/28 10:49:57;;;;;;;55.40;8.90;;;;;;;;;;5004015;28;20026;-63
2021/12/28 10:52:27;;;;;;;45.67;8.30;;;;;;;;;;4996723;28;20105;-69
2021/12/28 10:55:13;;;;;;;60.03;9.95;;;;;;;;;;4981078;28;20509;-68
2021/12/28 10:57:40;;;;;;;50.30;7.57;;;;;;;;;;5007840;28;20057;-67
2021/12/28 11:00:25;;;;;;;44.03;7.55;;;;;;;;;;5000883;28;20030;-66
2021/12/28 11:03:10;;;;;;;46.75;7.40;;;;;;;;;;4995119;28;20030;-69
2021/12/28 11:05:36;;;;;;;47.63;7.13;;;;;;;;;;4999132;28;20040;-71
2021/12/28 11:08:07;;;;;;;44.92;7.70;;;;;;;;;;4996239;28;20041;-69
2021/12/28 11:10:33;;;;;;;52.47;9.13;;;;;;;;;;5003430;28;20100;-71
2021/12/28 11:13:00;;;;;;;54.50;8.82;;;;;;;;;;5006185;28;20038;-67
2021/12/28 11:15:26;;;;;;;57.75;8.25;;;;;;;;;;5002013;28;20026;-66
2021/12/28 11:17:53;;;;;;;56.25;7.50;;;;;;;;;;4997663;28;20319;-69
2021/12/28 11:20:32;;;;;;;50.33;8.00;;;;;;;;;;4990351;28;20034;-69
2021/12/28 11:23:11;;;;;;;43.85;6.88;;;;;;;;;;4995151;28;20023;-68
2021/12/28 11:25:37;;;;;;;40.47;8.05;;;;;;;;;;4988832;28;20018;-73
2021/12/28 11:28:16;;;;;;;48.45;8.13;;;;;;;;;;4998046;28;20026;-68
2021/12/28 11:30:57;;;;;;;55.80;8.27;;;;;;;;;;4991550;28;20033;-70
2021/12/28 11:33:23;;;;;;;61.15;8.68;;;;;;;;;;5000945;28;20379;-65
2021/12/28 11:35:49;;;;;;;53.10;8.82;;;;;;;;;;4994488;28;20524;-68
2021/12/28 11:38:16;;;;;;;47.75;8.50;;;;;;;;;;5002697;28;20073;-67
2021/12/28 11:40:42;;;;;;;43.33;7.85;;;;;;;;;;4973190;28;20033;-68
2021/12/28 11:43:08;;;;;;;59.03;7.97;;;;;;;;;;5004576;28;20554;-65
2021/12/28 11:45:34;;;;;;;40.42;8.77;;;;;;;;;;4993511;28;20026;-68
2021/12/28 11:48:00;;;;;;;53.35;9.43;;;;;;;;;;4993636;28;20371;-71
2021/12/28 11:50:26;;;;;;;46.83;7.57;;;;;;;;;;4999253;28;20066;-65
2021/12/28 11:52:52;;;;;;;48.47;8.15;;;;;;;;;;5001260;28;20397;-71
2021/12/28 11:55:20;;;;;;;50.65;8.75;;;;;;;;;;4974849;28;20266;-69
2021/12/28 11:57:51;;;;;;;67.28;7.88;;;;;;;;;;4997530;28;20501;-64
2021/12/28 12:00:19;;;;;;;52.95;8.70;;;;;;;;;;5002367;28;20414;-65
2021/12/28 12:02:51;;;;;;;49.42;7.60;;;;;;;;;;4998242;28;20010;-65
2021/12/28 12:05:17;;;;;;;49.13;7.45;;;;;;;;;;4980601;28;20486;-65
2021/12/28 12:07:44;;;;;;;52.00;8.27;;;;;;;;;;5001119;28;20101;-65
2021/12/28 12:10:15;;;;;;;53.80;10.20;;;;;;;;;;4992417;28;20122;-65
2021/12/28 12:12:44;;;;;;;50.97;8.07;;;;;;;;;;4999259;28;20030;-65
2021/12/28 12:15:11;;;;;;;50.95;7.53;;;;;;;;;;4991700;28;20041;-65
2021/12/28 12:17:40;;;;;;;38.25;9.25;;;;;;;;;;5006529;28;20052;-65
2021/12/28 12:20:22;;;;;;;44.67;8.65;;;;;;;;;;4996241;28;20092;-65
2021/12/28 12:22:50;;;;;;;52.17;7.97;;;;;;;;;;5006325;28;20073;-65
2021/12/28 12:25:20;;;;;;;52.58;7.65;;;;;;;;;;5000658;28;20113;-65
2021/12/28 12:27:49;;;;;;;43.97;7.47;;;;;;;;;;4996123;28;20095;-65
2021/12/28 12:30:18;;;;;;;48.85;7.32;;;;;;;;;;4991770;28;20034;-65
2021/12/28 12:35:43;;;;;;;52.17;9.10;;;;;;;;;;4999359;28;20107;-65
2021/12/28 12:38:12;;;;;;;52.10;8.63;;;;;;;;;;4978328;28;20047;-65
2021/12/28 12:41:01;;;;;;;70.45;11.82;;;;;;;;;;4987565;28;20045;-65
2021/12/28 12:43:39;;;;;;;50.70;8.00;;;;;;;;;;4994647;28;20478;-65
2021/12/28 12:46:24;;;;;;;54.25;8.38;;;;;;;;;;4996391;28;20026;-65
2021/12/28 12:48:53;;;;;;;51.15;7.97;;;;;;;;;;4999678;28;20027;-65
2021/12/28 12:51:22;;;;;;;49.22;9.88;;;;;;;;;;4994320;28;20026;-65
2021/12/28 12:53:50;;;;;;;51.47;9.23;;;;;;;;;;4994718;28;20418;-65
2021/12/28 12:56:16;;;;;;;56.40;9.35;;;;;;;;;;4995762;28;20049;-65
2021/12/28 12:58:45;;;;;;;53.70;8.30;;;;;;;;;;4993712;28;20022;-65
2021/12/28 13:01:44;;;;;;;60.20;8.63;;;;;;;;;;4995202;28;20034;-65
2021/12/28 13:04:26;;;;;;;53.22;10.93;;;;;;;;;;4932811;29;20036;-65
2021/12/28 13:07:11;;;;;;;51.22;8.68;;;;;;;;;;4932105;29;20032;-65
2021/12/28 13:09:38;;;;;;;48.40;8.65;;;;;;;;;;4927712;29;20076;-65
2021/12/28 13:12:12;;;;;;;66.35;8.35;;;;;;;;;;4930907;29;20039;-65
2021/12/28 13:14:39;;;;;;;42.38;8.40;;;;;;;;;;4932438;29;20087;-64
2021/12/28 13:17:05;;;;;;;40.45;7.72;;;;;;;;;;4932694;29;20036;-65
2021/12/28 13:19:32;;;;;;;53.95;8.80;;;;;;;;;;4933913;29;20399;-65
2021/12/28 13:21:59;;;;;;;46.85;8.57;;;;;;;;;;4937694;29;20042;-65
2021/12/28 13:24:26;;;;;;;45.83;7.82;;;;;;;;;;4934566;29;20523;-65
2021/12/28 13:26:56;;;;;;;45.75;7.13;;;;;;;;;;4935113;29;20131;-65
2021/12/28 13:29:24;;;;;;;45.25;7.05;;;;;;;;;;4936168;29;20031;-65
2021/12/28 13:31:50;;;;;;;43.72;8.70;;;;;;;;;;4936593;29;20090;-65
2021/12/28 13:34:17;;;;;;;52.42;8.07;;;;;;;;;;4935494;29;20040;-65
2021/12/28 13:36:49;;;;;;;61.85;9.05;;;;;;;;;;4934980;29;20047;-65
2021/12/28 13:39:15;;;;;;;;;;;;;;;;;;4952228;28;20038;-65
2021/12/28 13:41:51;;;;;;;50.95;7.47;;;;;;;;;;4990124;28;19918;-65
2021/12/28 13:44:17;;;;;;;58.08;8.02;;;;;;;;;;4987218;28;20019;-65
2021/12/28 13:46:43;;;;;;;45.00;7.68;;;;;;;;;;4985992;28;20033;-65
2021/12/28 13:49:14;;;;;;;41.80;7.20;;;;;;;;;;4988075;28;20031;-65
2021/12/28 13:51:40;;;;;;;49.85;7.45;;;;;;;;;;4992209;28;20086;-65
2021/12/28 13:54:06;;;;;;;63.50;8.40;;;;;;;;;;4994532;28;20040;-65
2021/12/28 13:56:35;;;;;;;60.38;7.97;;;;;;;;;;4994335;28;20065;-65
2021/12/28 13:59:04;;;;;;;53.15;10.35;;;;;;;;;;4993422;28;20471;-65
2021/12/28 14:01:31;;;;;;;50.45;8.23;;;;;;;;;;4998554;28;20437;-65
2021/12/28 14:04:17;;;;;;;45.55;8.80;;;;;;;;;;5000843;28;20030;-65
2021/12/28 14:06:45;;;;;;;43.95;8.95;;;;;;;;;;4996020;28;20093;-64
2021/12/28 14:09:15;;;;;;;56.03;8.77;;;;;;;;;;4993331;28;20058;-65
2021/12/28 14:11:44;;;;;;;49.17;7.22;;;;;;;;;;4990158;28;20085;-65
2021/12/28 14:14:14;;;;;;;52.97;7.45;;;;;;;;;;4987550;28;20027;-65
2021/12/28 14:17:01;;;;;;;43.80;7.28;;;;;;;;;;4988585;28;20517;-65
2021/12/28 14:19:29;;;;;;;51.80;8.57;;;;;;;;;;4988863;28;20030;-65
2021/12/28 14:21:55;;;;;;;47.30;8.15;;;;;;;;;;4992036;28;20030;-65
2021/12/28 14:24:26;;;;;;;45.47;7.95;;;;;;;;;;4992120;28;20019;-65
2021/12/28 14:26:52;;;;;;;60.25;8.15;;;;;;;;;;4991922;28;20081;-65
2021/12/28 14:29:22;;;;;;;55.45;9.15;;;;;;;;;;4994228;28;20026;-65
2021/12/28 14:31:53;;;;;;;48.65;7.55;;;;;;;;;;4994534;28;20029;-65
2021/12/28 14:34:28;;;;;;;41.80;7.55;;;;;;;;;;4995256;28;20118;-65
2021/12/28 14:37:01;;;;;;;56.50;8.35;;;;;;;;;;4993079;28;20049;-65
2021/12/28 14:39:31;;;;;;;;;;;;;;;;;;4992808;28;20475;-64
2021/12/28 14:42:06;;;;;;;56.58;8.48;;;;;;;;;;4993429;28;19922;-64